CPX434 Details

Departure: El Paso International Airport (KELP)
Arrival: Sacramento International Airport (KSMF)
Route: ATKNN5 FLOGS ITUCO Q2 BOILE J50 EHF NURAY SUUTR2


Current Weather Information
KELP 232151Z 26012G22KT 9SM CLR 29/M06 A2989 RMK AO2 SLP050 T02941056
KSMF 232153Z VRB05KT 10SM FEW050 25/11 A2978 RMK AO2 SLP084 T02500111